createdAt,value
2017-11-03T00:00:21.085Z,48.15
2017-11-03T00:00:54.970Z,54.47
2017-11-03T00:01:28.851Z,52.25
2017-11-03T00:02:02.722Z,51.78
2017-11-03T00:02:36.611Z,44.58
2017-11-03T00:03:10.488Z,49.03
2017-11-03T00:03:44.358Z,40.88
2017-11-03T00:04:18.223Z,46.55
2017-11-03T00:04:52.111Z,52.38
2017-11-03T00:05:27.000Z,44.65
2017-11-03T00:06:00.880Z,42.45
2017-11-03T00:06:34.745Z,53.20
2017-11-03T00:07:08.611Z,41.35
2017-11-03T00:07:51.731Z,44.78
2017-11-03T00:08:25.596Z,44.92
2017-11-03T00:08:59.659Z,45.33
2017-11-03T00:09:33.549Z,47.53
2017-11-03T00:10:07.527Z,43.85
2017-11-03T00:10:41.422Z,48.35
2017-11-03T00:11:15.302Z,44.45
2017-11-03T00:11:49.208Z,42.47
2017-11-03T00:12:23.076Z,39.55
2017-11-03T00:12:56.953Z,46.03
2017-11-03T00:13:30.832Z,48.25
2017-11-03T00:14:04.705Z,41.58
2017-11-03T00:14:38.575Z,46.75
2017-11-03T00:15:12.443Z,41.53
2017-11-03T00:15:46.384Z,49.08
2017-11-03T00:16:20.276Z,48.55
2017-11-03T00:16:54.155Z,40.17
2017-11-03T00:17:28.023Z,38.15
2017-11-03T00:18:01.914Z,41.22
2017-11-03T00:18:35.783Z,48.05
2017-11-03T00:19:09.664Z,51.40
2017-11-03T00:19:43.537Z,42.03
2017-11-03T00:20:17.410Z,55.20
2017-11-03T00:20:51.315Z,44.78
2017-11-03T00:21:25.234Z,44.00
2017-11-03T00:21:59.111Z,47.60
2017-11-03T00:22:32.999Z,47.35
2017-11-03T00:23:06.924Z,45.78
2017-11-03T00:23:40.788Z,47.58
2017-11-03T00:24:14.664Z,45.63
2017-11-03T00:24:48.555Z,47.20
2017-11-03T00:25:22.619Z,46.58
2017-11-03T00:25:56.508Z,44.78
2017-11-03T00:26:30.509Z,53.38
2017-11-03T00:27:04.393Z,48.17
2017-11-03T00:27:38.265Z,46.25
2017-11-03T00:28:12.591Z,46.35
2017-11-03T00:28:46.595Z,47.70
2017-11-03T00:29:20.465Z,44.50
2017-11-03T00:29:54.380Z,49.60
2017-11-03T00:30:28.252Z,48.25
2017-11-03T00:31:02.137Z,48.20
2017-11-03T00:31:36.069Z,48.78
2017-11-03T00:32:09.945Z,54.92
2017-11-03T00:32:43.963Z,51.63
2017-11-03T00:33:17.957Z,45.50
2017-11-03T00:33:51.836Z,59.53
2017-11-03T00:34:25.768Z,52.28
2017-11-03T00:34:59.642Z,43.35
2017-11-03T00:35:33.561Z,43.45
2017-11-03T00:36:07.441Z,48.90
2017-11-03T00:36:41.446Z,48.25
2017-11-03T00:37:15.335Z,56.08
2017-11-03T00:37:49.219Z,50.12
2017-11-03T00:38:23.111Z,51.65
2017-11-03T00:38:56.990Z,50.63
2017-11-03T00:39:30.871Z,53.00
2017-11-03T00:40:04.762Z,54.47
2017-11-03T00:40:38.633Z,53.13
2017-11-03T00:41:12.618Z,45.80
2017-11-03T00:41:46.814Z,47.62
2017-11-03T00:42:20.716Z,52.92
2017-11-03T00:42:54.578Z,50.45
2017-11-03T00:43:28.446Z,48.92
2017-11-03T00:44:02.329Z,52.45
2017-11-03T00:44:36.226Z,51.53
2017-11-03T00:45:10.123Z,57.15
2017-11-03T00:45:44.016Z,56.67
2017-11-03T00:46:17.920Z,58.38
2017-11-03T00:46:51.804Z,48.17
2017-11-03T00:47:25.674Z,54.50
2017-11-03T00:47:59.566Z,59.60
2017-11-03T00:48:33.552Z,59.53
2017-11-03T00:49:07.412Z,49.80
2017-11-03T00:49:41.445Z,50.28
2017-11-03T00:50:15.328Z,61.70
2017-11-03T00:50:49.201Z,59.92
2017-11-03T00:51:23.091Z,53.13
2017-11-03T00:51:56.965Z,53.92
2017-11-03T00:52:30.839Z,49.75
2017-11-03T00:53:04.718Z,48.25
2017-11-03T00:53:38.716Z,57.00
2017-11-03T00:54:12.583Z,53.72
2017-11-03T00:54:46.437Z,52.38
2017-11-03T00:55:20.485Z,53.47
2017-11-03T00:55:54.361Z,59.80
2017-11-03T00:56:28.275Z,53.97
2017-11-03T00:57:02.151Z,50.63
2017-11-03T00:57:36.022Z,50.72
2017-11-03T00:58:09.901Z,49.63
2017-11-03T00:58:43.766Z,57.95
2017-11-03T00:59:17.653Z,55.47
2017-11-03T00:59:51.541Z,53.30
2017-11-03T01:00:25.436Z,58.28
2017-11-03T01:00:59.314Z,52.62
2017-11-03T01:01:34.324Z,54.67
2017-11-03T01:02:08.191Z,51.37
2017-11-03T01:02:42.176Z,57.70
2017-11-03T01:03:16.350Z,49.90
2017-11-03T01:03:50.241Z,56.80
2017-11-03T01:04:24.351Z,58.20
2017-11-03T01:04:58.342Z,51.03
2017-11-03T01:05:32.210Z,52.17
2017-11-03T01:06:06.150Z,53.25
2017-11-03T01:06:40.059Z,48.08
2017-11-03T01:07:13.935Z,54.42
2017-11-03T01:07:47.818Z,50.95
2017-11-03T01:08:21.686Z,55.40
2017-11-03T01:08:55.549Z,53.50
2017-11-03T01:09:29.427Z,56.42
2017-11-03T01:10:03.327Z,54.58
2017-11-03T01:10:37.206Z,51.75
2017-11-03T01:11:11.102Z,53.70
2017-11-03T01:11:45.216Z,58.72
2017-11-03T01:12:19.320Z,46.65
2017-11-03T01:12:53.200Z,52.25
2017-11-03T01:13:27.079Z,53.95
2017-11-03T01:14:00.959Z,51.03
2017-11-03T01:14:34.823Z,50.72
2017-11-03T01:15:08.706Z,52.13
2017-11-03T01:15:42.571Z,55.25
2017-11-03T01:16:16.562Z,50.83
2017-11-03T01:16:50.462Z,51.10
2017-11-03T01:17:24.336Z,49.30
2017-11-03T01:17:58.207Z,52.40
2017-11-03T01:18:32.109Z,49.60
2017-11-03T01:19:05.985Z,55.10
2017-11-03T01:19:39.858Z,55.38
2017-11-03T01:20:13.820Z,55.72
2017-11-03T01:20:47.844Z,59.00
2017-11-03T01:21:21.733Z,57.53
2017-11-03T01:21:55.818Z,52.72
2017-11-03T01:22:29.689Z,48.42
2017-11-03T01:23:03.621Z,47.90
2017-11-03T01:23:37.505Z,54.83
2017-11-03T01:24:11.384Z,50.33
2017-11-03T01:24:45.306Z,52.30
2017-11-03T01:25:19.188Z,54.03
2017-11-03T01:25:53.203Z,53.58
2017-11-03T01:26:27.199Z,58.03
2017-11-03T01:27:01.182Z,51.45
2017-11-03T01:27:35.062Z,53.72
2017-11-03T01:28:09.867Z,50.70
2017-11-03T01:28:43.763Z,44.30
2017-11-03T01:29:17.630Z,49.42
2017-11-03T01:29:51.613Z,58.80
2017-11-03T01:30:25.483Z,60.00
2017-11-03T01:30:59.495Z,50.60
2017-11-03T01:31:33.378Z,51.42
2017-11-03T01:32:07.267Z,53.72
2017-11-03T01:32:41.178Z,54.80
2017-11-03T01:33:15.056Z,48.50
2017-11-03T01:33:48.940Z,49.83
2017-11-03T01:34:22.871Z,51.67
2017-11-03T01:34:56.867Z,55.22
2017-11-03T01:35:30.741Z,45.80
2017-11-03T01:36:04.620Z,59.22
2017-11-03T01:36:38.648Z,50.15
2017-11-03T01:37:12.536Z,50.10
2017-11-03T01:37:46.537Z,46.42
2017-11-03T01:38:20.417Z,54.35
2017-11-03T01:38:54.279Z,51.75
2017-11-03T01:39:28.440Z,52.08
2017-11-03T01:40:02.315Z,53.70
2017-11-03T01:40:36.195Z,56.95
2017-11-03T01:41:10.067Z,50.78
2017-11-03T01:41:43.962Z,53.40
2017-11-03T01:42:17.852Z,54.55
2017-11-03T01:42:51.729Z,50.53
2017-11-03T01:43:25.606Z,49.83
2017-11-03T01:43:59.508Z,52.62
2017-11-03T01:44:33.400Z,47.08
2017-11-03T01:45:07.278Z,51.35
2017-11-03T01:45:41.168Z,52.28
2017-11-03T01:46:15.044Z,48.85
2017-11-03T01:46:48.909Z,45.97
2017-11-03T01:47:22.791Z,48.50
2017-11-03T01:47:56.685Z,48.75
2017-11-03T01:48:30.564Z,46.45
2017-11-03T01:49:04.450Z,54.08
2017-11-03T01:49:38.331Z,40.25
2017-11-03T01:50:12.211Z,46.00
2017-11-03T01:50:46.098Z,48.45
2017-11-03T01:51:19.970Z,37.85
2017-11-03T01:51:53.849Z,46.30
2017-11-03T01:52:27.762Z,51.60
2017-11-03T01:53:01.643Z,44.42
2017-11-03T01:53:35.518Z,44.03
2017-11-03T01:54:09.398Z,44.97
2017-11-03T01:54:43.274Z,55.03
2017-11-03T01:55:17.149Z,43.70
2017-11-03T01:55:51.017Z,47.85
2017-11-03T01:56:24.880Z,41.33
2017-11-03T01:56:58.758Z,42.53
2017-11-03T01:57:32.757Z,48.92
2017-11-03T01:58:06.626Z,46.05
2017-11-03T01:58:40.553Z,40.20
2017-11-03T01:59:14.442Z,49.67
2017-11-03T01:59:48.325Z,43.65
2017-11-03T02:00:22.420Z,46.22
2017-11-03T02:00:56.303Z,41.97
2017-11-03T02:01:30.200Z,52.20
2017-11-03T02:02:04.078Z,53.15
2017-11-03T02:02:37.995Z,51.55
2017-11-03T02:03:11.869Z,43.70
2017-11-03T02:03:45.750Z,40.40
2017-11-03T02:04:19.636Z,48.05
2017-11-03T02:04:53.508Z,49.20
2017-11-03T02:05:27.382Z,48.35
2017-11-03T02:06:01.255Z,46.85
2017-11-03T02:06:35.114Z,45.12
2017-11-03T02:07:08.977Z,44.47
2017-11-03T02:07:42.874Z,38.72
2017-11-03T02:08:16.757Z,43.60
2017-11-03T02:08:50.635Z,46.25
2017-11-03T02:09:24.519Z,38.13
2017-11-03T02:09:58.410Z,46.78
2017-11-03T02:10:32.283Z,46.15
2017-11-03T02:11:06.154Z,48.13
2017-11-03T02:11:40.027Z,39.13
2017-11-03T02:12:13.894Z,41.80
2017-11-03T02:12:47.783Z,48.47
2017-11-03T02:13:21.653Z,41.25
2017-11-03T02:13:55.537Z,37.45
2017-11-03T02:14:29.430Z,36.40
2017-11-03T02:15:03.320Z,36.13
2017-11-03T02:15:37.204Z,39.55
2017-11-03T02:16:11.077Z,37.38
2017-11-03T02:16:44.954Z,35.42
2017-11-03T02:17:18.887Z,39.42
2017-11-03T02:17:52.776Z,42.15
2017-11-03T02:18:26.677Z,38.55
2017-11-03T02:19:00.561Z,34.90
2017-11-03T02:19:34.428Z,35.00
2017-11-03T02:20:08.312Z,32.45
2017-11-03T02:20:42.189Z,37.05
2017-11-03T02:21:16.071Z,38.28
2017-11-03T02:21:49.963Z,36.20
2017-11-03T02:22:23.843Z,37.80
2017-11-03T02:22:57.759Z,41.63
2017-11-03T02:23:31.638Z,34.70
2017-11-03T02:24:05.516Z,38.38
2017-11-03T02:24:39.389Z,32.47
2017-11-03T02:25:13.262Z,41.58
2017-11-03T02:25:47.154Z,37.63
2017-11-03T02:26:21.038Z,35.05
2017-11-03T02:26:54.906Z,29.98
2017-11-03T02:27:28.778Z,42.60
2017-11-03T02:28:02.655Z,34.90
2017-11-03T02:28:36.584Z,33.22
2017-11-03T02:29:10.455Z,32.70
2017-11-03T02:29:44.328Z,34.55
2017-11-03T02:30:18.215Z,31.08
2017-11-03T02:30:52.093Z,37.85
2017-11-03T02:31:25.985Z,32.03
2017-11-03T02:31:59.862Z,36.92
2017-11-03T02:32:33.741Z,34.22
2017-11-03T02:33:07.630Z,30.70
2017-11-03T02:33:41.493Z,37.33
2017-11-03T02:34:15.376Z,28.55
2017-11-03T02:34:49.252Z,31.33
2017-11-03T02:35:23.128Z,36.22
2017-11-03T02:35:57.004Z,33.47
2017-11-03T02:36:30.887Z,33.80
2017-11-03T02:37:04.787Z,34.95
2017-11-03T02:37:38.662Z,32.03
2017-11-03T02:38:12.544Z,37.08
2017-11-03T02:38:46.425Z,30.70
2017-11-03T02:39:20.314Z,36.78
2017-11-03T02:39:54.184Z,29.48
2017-11-03T02:40:28.063Z,32.67
2017-11-03T02:41:01.937Z,31.60
2017-11-03T02:41:35.968Z,36.90
2017-11-03T02:42:09.833Z,37.85
2017-11-03T02:42:43.706Z,34.88
2017-11-03T02:43:17.608Z,35.90
2017-11-03T02:43:51.476Z,32.78
2017-11-03T02:44:25.345Z,33.53
2017-11-03T02:44:59.224Z,32.22
2017-11-03T02:45:33.099Z,33.90
2017-11-03T02:46:06.982Z,35.55
2017-11-03T02:46:40.868Z,37.42
2017-11-03T02:47:14.733Z,34.72
2017-11-03T02:47:48.615Z,35.85
2017-11-03T02:48:22.509Z,34.10
2017-11-03T02:48:56.408Z,32.30
2017-11-03T02:49:30.296Z,36.95
2017-11-03T02:50:04.205Z,39.70
2017-11-03T02:50:38.087Z,36.45
2017-11-03T02:51:11.973Z,35.30
2017-11-03T02:51:45.846Z,38.03
2017-11-03T02:52:19.722Z,40.00
2017-11-03T02:52:53.602Z,33.50
2017-11-03T02:53:27.484Z,32.47
2017-11-03T02:54:01.354Z,37.28
2017-11-03T02:54:35.234Z,39.30
2017-11-03T02:55:49.480Z,32.03
2017-11-03T02:56:23.379Z,37.42
2017-11-03T02:56:57.249Z,30.70
2017-11-03T02:57:31.306Z,32.38
2017-11-03T02:58:05.187Z,36.38
2017-11-03T02:58:39.076Z,37.65
2017-11-03T02:59:13.214Z,34.65
2017-11-03T02:59:47.092Z,43.63
2017-11-03T03:00:20.965Z,37.72
2017-11-03T03:00:55.082Z,45.33
2017-11-03T03:01:28.970Z,36.30
2017-11-03T03:02:03.096Z,45.03
2017-11-03T03:02:36.965Z,37.70
2017-11-03T03:03:10.870Z,37.33
2017-11-03T03:03:44.770Z,44.40
2017-11-03T03:04:18.638Z,33.88
2017-11-03T03:04:52.755Z,38.17
2017-11-03T03:05:26.770Z,41.83
2017-11-03T03:06:00.661Z,29.58
2017-11-03T03:06:34.560Z,43.17
2017-11-03T03:07:08.430Z,37.03
2017-11-03T03:07:42.357Z,40.05
2017-11-03T03:08:16.242Z,35.38
2017-11-03T03:08:50.245Z,40.60
2017-11-03T03:09:24.117Z,32.45
2017-11-03T03:09:58.003Z,42.40
2017-11-03T03:10:32.236Z,43.53
2017-11-03T03:11:06.107Z,43.92
2017-11-03T03:11:40.003Z,47.90
2017-11-03T03:12:13.905Z,34.08
2017-11-03T03:12:47.783Z,36.28
2017-11-03T03:13:21.666Z,36.30
2017-11-03T03:13:55.576Z,41.53
2017-11-03T03:14:29.483Z,44.97
2017-11-03T03:15:03.388Z,31.87
2017-11-03T03:15:37.261Z,35.10
2017-11-03T03:16:11.136Z,35.13
2017-11-03T03:16:45.009Z,40.03
2017-11-03T03:17:18.884Z,41.37
2017-11-03T03:17:52.757Z,40.17
2017-11-03T03:18:26.646Z,42.92
2017-11-03T03:19:00.532Z,38.28
2017-11-03T03:19:34.421Z,46.22
2017-11-03T03:20:08.317Z,45.33
2017-11-03T03:20:42.198Z,41.17
2017-11-03T03:21:16.079Z,38.17
2017-11-03T03:21:50.013Z,35.28
2017-11-03T03:22:23.888Z,44.05
2017-11-03T03:22:57.756Z,41.40
2017-11-03T03:23:32.012Z,42.78
2017-11-03T03:24:05.908Z,48.00
2017-11-03T03:24:39.764Z,46.00
2017-11-03T03:25:13.637Z,43.08
2017-11-03T03:25:47.516Z,43.78
2017-11-03T03:26:21.393Z,38.53
2017-11-03T03:26:55.378Z,41.47
2017-11-03T03:27:29.248Z,37.58
2017-11-03T03:28:03.204Z,47.33
2017-11-03T03:28:37.075Z,43.33
2017-11-03T03:29:10.965Z,43.45
2017-11-03T03:29:44.831Z,44.13
2017-11-03T03:30:18.751Z,48.10
2017-11-03T03:30:52.606Z,44.00
2017-11-03T03:31:26.760Z,44.20
2017-11-03T03:32:00.742Z,38.80
2017-11-03T03:32:34.620Z,43.17
2017-11-03T03:33:08.489Z,40.83
2017-11-03T03:33:42.359Z,43.53
2017-11-03T03:34:16.255Z,47.42
2017-11-03T03:34:50.120Z,43.65
2017-11-03T03:35:23.987Z,44.58
2017-11-03T03:35:58.034Z,39.67
2017-11-03T03:36:31.938Z,46.97
2017-11-03T03:37:05.844Z,45.72
2017-11-03T03:37:39.850Z,45.63
2017-11-03T03:38:13.728Z,41.05
2017-11-03T03:38:47.792Z,44.13
2017-11-03T03:39:21.689Z,51.90
2017-11-03T03:39:55.592Z,44.50
2017-11-03T03:40:29.469Z,45.00
2017-11-03T03:41:03.335Z,44.55
2017-11-03T03:41:37.215Z,41.55
2017-11-03T03:42:11.082Z,44.03
2017-11-03T03:42:44.966Z,42.17
2017-11-03T03:43:18.842Z,48.85
2017-11-03T03:43:52.851Z,50.90
2017-11-03T03:44:26.761Z,45.90
2017-11-03T03:45:00.663Z,45.15
2017-11-03T03:45:34.538Z,53.80
2017-11-03T03:46:08.413Z,51.45
2017-11-03T03:46:42.280Z,39.67
2017-11-03T03:47:16.149Z,43.92
2017-11-03T03:47:50.024Z,47.92
2017-11-03T03:48:23.893Z,51.60
2017-11-03T03:48:57.772Z,41.58
2017-11-03T03:49:31.653Z,43.38
2017-11-03T03:50:05.533Z,40.83
2017-11-03T03:50:39.421Z,48.17
2017-11-03T03:51:13.304Z,43.35
2017-11-03T03:51:47.167Z,48.65
2017-11-03T03:52:21.040Z,48.83
2017-11-03T03:52:54.928Z,52.40
2017-11-03T03:53:28.814Z,46.13
2017-11-03T03:54:02.672Z,39.85
2017-11-03T03:54:36.577Z,47.55
2017-11-03T03:55:10.455Z,50.17
2017-11-03T03:55:44.337Z,54.38
2017-11-03T03:56:18.218Z,45.78
2017-11-03T03:56:52.098Z,54.47
2017-11-03T03:57:25.966Z,42.30
2017-11-03T03:57:59.855Z,42.78
2017-11-03T03:58:33.728Z,46.00
2017-11-03T03:59:07.599Z,53.50
2017-11-03T03:59:41.483Z,49.63
2017-11-03T04:00:15.401Z,49.83
2017-11-03T04:00:49.272Z,44.22
2017-11-03T04:01:23.162Z,49.78
2017-11-03T04:01:57.048Z,46.33
2017-11-03T04:02:30.941Z,51.17
2017-11-03T04:03:04.816Z,47.40
2017-11-03T04:03:38.713Z,49.15
2017-11-03T04:04:12.608Z,49.92
2017-11-03T04:04:46.508Z,47.85
2017-11-03T04:05:20.668Z,53.10
2017-11-03T04:05:54.563Z,47.05
2017-11-03T04:06:28.444Z,40.28
2017-11-03T04:07:02.310Z,44.97
2017-11-03T04:07:36.186Z,49.10
2017-11-03T04:08:10.055Z,43.78
2017-11-03T04:08:43.938Z,41.90
2017-11-03T04:09:17.835Z,46.90
2017-11-03T04:09:51.737Z,50.33
2017-11-03T04:10:25.623Z,45.60
2017-11-03T04:10:59.519Z,42.28
2017-11-03T04:11:33.386Z,42.72
2017-11-03T04:12:07.276Z,47.05
2017-11-03T04:12:41.156Z,44.13
2017-11-03T04:13:15.034Z,47.90
2017-11-03T04:13:48.910Z,57.45
2017-11-03T04:14:22.793Z,47.85
2017-11-03T04:14:56.674Z,52.45
2017-11-03T04:15:30.538Z,45.28
2017-11-03T04:16:04.581Z,49.63
2017-11-03T04:16:38.467Z,43.97
2017-11-03T04:17:12.340Z,48.55
2017-11-03T04:17:46.219Z,52.80
2017-11-03T04:18:20.362Z,55.38
2017-11-03T04:18:54.231Z,55.38
2017-11-03T04:19:28.100Z,41.47
2017-11-03T04:20:02.047Z,43.97
2017-11-03T04:20:35.924Z,47.25
2017-11-03T04:21:09.795Z,51.67
2017-11-03T04:22:48.212Z,50.55
2017-11-03T04:23:22.102Z,46.75
2017-11-03T04:23:56.140Z,48.00
2017-11-03T04:24:30.031Z,50.10
2017-11-03T04:25:03.911Z,60.78
2017-11-03T04:25:37.780Z,50.60
2017-11-03T04:26:11.655Z,45.72
2017-11-03T04:26:45.528Z,48.50
2017-11-03T04:27:19.390Z,45.70
2017-11-03T04:27:53.271Z,44.13
2017-11-03T04:28:27.163Z,50.10
2017-11-03T04:29:01.202Z,49.42
2017-11-03T04:29:35.057Z,53.58
2017-11-03T04:30:08.954Z,54.75
2017-11-03T04:30:42.892Z,52.47
2017-11-03T04:31:16.783Z,46.00
2017-11-03T04:31:50.682Z,53.80
2017-11-03T04:32:24.556Z,46.60
2017-11-03T04:32:58.435Z,53.22
2017-11-03T04:33:32.308Z,51.72
2017-11-03T04:34:06.585Z,53.92
2017-11-03T04:34:41.536Z,49.53
2017-11-03T04:35:17.049Z,59.17
2017-11-03T04:35:50.948Z,49.10
2017-11-03T04:36:24.820Z,52.30
2017-11-03T04:36:59.526Z,61.75
2017-11-03T04:37:33.409Z,47.83
2017-11-03T04:38:07.264Z,56.72
2017-11-03T04:38:41.135Z,61.65
2017-11-03T04:39:15.006Z,57.88
2017-11-03T04:39:48.863Z,57.88
2017-11-03T04:40:22.753Z,55.40
2017-11-03T04:40:56.631Z,60.10
2017-11-03T04:41:30.512Z,51.42
2017-11-03T04:42:04.391Z,62.38
2017-11-03T04:42:38.283Z,55.83
2017-11-03T04:43:12.162Z,53.63
2017-11-03T04:43:46.032Z,54.95
2017-11-03T04:44:19.908Z,60.83
2017-11-03T04:44:53.773Z,56.53
2017-11-03T04:45:27.650Z,51.92
2017-11-03T04:46:01.608Z,55.33
2017-11-03T04:46:35.514Z,56.80
2017-11-03T04:47:09.395Z,61.50
2017-11-03T04:47:43.264Z,54.83
2017-11-03T04:48:17.153Z,59.55
2017-11-03T04:48:51.029Z,49.90
2017-11-03T04:49:24.910Z,66.22
2017-11-03T04:49:58.796Z,57.00
2017-11-03T04:50:32.697Z,58.25
2017-11-03T04:51:06.570Z,56.55
2017-11-03T04:51:40.445Z,58.05
2017-11-03T04:52:14.330Z,59.60
2017-11-03T04:52:48.197Z,63.35
2017-11-03T04:53:22.278Z,56.80
2017-11-03T04:53:56.143Z,60.40
2017-11-03T04:54:30.030Z,55.55
2017-11-03T04:55:03.889Z,56.45
2017-11-03T04:55:37.804Z,58.45
2017-11-03T04:56:11.677Z,70.10
2017-11-03T04:56:45.558Z,65.12
2017-11-03T04:57:19.426Z,61.75
2017-11-03T04:57:53.318Z,59.72
2017-11-03T04:58:27.213Z,56.25
2017-11-03T04:59:01.096Z,53.78
2017-11-03T04:59:34.965Z,56.72
2017-11-03T05:00:09.020Z,59.65
2017-11-03T05:00:42.917Z,58.30
2017-11-03T05:01:16.789Z,70.07
2017-11-03T05:01:50.691Z,54.80
2017-11-03T05:02:24.578Z,58.38
2017-11-03T05:02:58.480Z,56.35
2017-11-03T05:03:32.368Z,59.58
2017-11-03T05:04:06.260Z,63.28
2017-11-03T05:04:40.143Z,65.30
2017-11-03T05:05:14.018Z,64.50
2017-11-03T05:05:47.913Z,61.37
2017-11-03T05:06:21.794Z,59.22
2017-11-03T05:06:55.658Z,63.78
2017-11-03T05:07:29.532Z,58.25
2017-11-03T05:08:03.422Z,55.78
2017-11-03T05:08:37.315Z,56.28
2017-11-03T05:09:11.193Z,61.37
2017-11-03T05:09:45.074Z,55.08
2017-11-03T05:10:18.951Z,59.97
2017-11-03T05:10:52.860Z,57.72
2017-11-03T05:11:26.732Z,58.60
2017-11-03T05:12:00.608Z,66.07
2017-11-03T05:12:34.493Z,52.45
2017-11-03T05:13:08.371Z,56.25
2017-11-03T05:13:42.293Z,58.17
2017-11-03T05:14:16.166Z,59.15
2017-11-03T05:14:50.045Z,53.72
2017-11-03T05:15:23.911Z,57.05
2017-11-03T05:15:57.824Z,48.40
2017-11-03T05:16:31.703Z,61.00
2017-11-03T05:17:05.584Z,62.45
2017-11-03T05:17:39.456Z,53.90
2017-11-03T05:18:13.373Z,66.05
2017-11-03T05:18:47.251Z,60.92
2017-11-03T05:19:21.122Z,65.65
2017-11-03T05:19:55.028Z,67.60
2017-11-03T05:20:28.942Z,54.10
2017-11-03T05:21:02.836Z,68.60
2017-11-03T05:21:36.712Z,61.13
2017-11-03T05:22:10.583Z,56.72
2017-11-03T05:22:44.455Z,52.95
2017-11-03T05:23:18.371Z,58.50
2017-11-03T05:23:52.248Z,64.32
2017-11-03T05:24:26.121Z,58.63
2017-11-03T05:25:00.002Z,57.35
2017-11-03T05:25:33.885Z,66.28
2017-11-03T05:26:07.784Z,62.70
2017-11-03T05:26:41.665Z,61.95
2017-11-03T05:27:15.534Z,59.60
2017-11-03T05:27:49.411Z,58.53
2017-11-03T05:28:23.579Z,62.60
2017-11-03T05:28:57.447Z,54.47
2017-11-03T05:29:31.324Z,57.28
2017-11-03T05:30:05.209Z,54.63
2017-11-03T05:30:39.106Z,58.63
2017-11-03T05:31:13.003Z,66.18
2017-11-03T05:31:47.090Z,55.33
2017-11-03T05:32:20.948Z,57.88
2017-11-03T05:32:54.819Z,54.03
2017-11-03T05:33:28.695Z,54.55
2017-11-03T05:34:02.564Z,53.22
2017-11-03T05:34:36.530Z,56.88
2017-11-03T05:35:10.412Z,54.15
2017-11-03T05:35:44.291Z,56.47
2017-11-03T05:36:18.189Z,55.28
2017-11-03T05:36:52.076Z,60.53
2017-11-03T05:37:25.945Z,58.70
2017-11-03T05:37:59.845Z,55.63
2017-11-03T05:38:33.726Z,57.50
2017-11-03T05:39:07.802Z,52.35
2017-11-03T05:39:41.680Z,52.35
2017-11-03T05:40:15.558Z,47.40
2017-11-03T05:40:49.479Z,50.58
2017-11-03T05:41:23.379Z,51.75
2017-11-03T05:41:57.275Z,54.47
2017-11-03T05:42:31.158Z,53.03
2017-11-03T05:43:05.027Z,57.30
2017-11-03T05:43:38.900Z,52.67
2017-11-03T05:44:12.795Z,63.75
2017-11-03T05:44:46.674Z,54.33
2017-11-03T05:45:20.568Z,55.15
2017-11-03T05:45:54.436Z,52.10
2017-11-03T05:46:28.334Z,59.55
2017-11-03T05:47:02.226Z,48.25
2017-11-03T05:47:36.094Z,55.28
2017-11-03T05:48:09.982Z,57.33
2017-11-03T05:48:43.849Z,62.75
2017-11-03T05:49:17.839Z,50.55
2017-11-03T05:49:51.761Z,60.12
2017-11-03T05:50:25.647Z,48.15
2017-11-03T05:50:59.539Z,49.08
2017-11-03T05:51:33.449Z,50.63
2017-11-03T05:52:07.409Z,54.58
2017-11-03T05:52:41.303Z,48.78
2017-11-03T05:53:15.384Z,49.40
2017-11-03T05:53:49.262Z,56.75
2017-11-03T05:54:23.135Z,55.40
2017-11-03T05:54:57.015Z,57.28
2017-11-03T05:55:30.894Z,57.78
2017-11-03T05:56:04.775Z,50.90
2017-11-03T05:56:38.679Z,50.88
2017-11-03T05:57:12.554Z,53.17
2017-11-03T05:57:46.666Z,65.18
2017-11-03T05:58:20.651Z,61.05
2017-11-03T05:58:54.524Z,61.00
2017-11-03T05:59:28.405Z,58.20
2017-11-03T06:00:02.438Z,58.08
2017-11-03T06:00:36.443Z,53.58
2017-11-03T06:01:10.444Z,59.00
2017-11-03T06:01:44.339Z,48.30
2017-11-03T06:02:18.355Z,62.92
2017-11-03T06:02:52.225Z,54.75
2017-11-03T06:03:26.097Z,63.92
2017-11-03T06:04:00.121Z,52.92
2017-11-03T06:04:33.992Z,47.95
2017-11-03T06:05:07.860Z,67.25
2017-11-03T06:05:41.750Z,58.30
2017-11-03T06:06:15.615Z,55.40
2017-11-03T06:06:49.504Z,59.80
2017-11-03T06:07:23.384Z,65.00
2017-11-03T06:07:57.279Z,62.40
2017-11-03T06:08:31.157Z,64.50
2017-11-03T06:09:05.045Z,67.05
2017-11-03T06:09:38.926Z,58.22
2017-11-03T06:10:12.823Z,59.45
2017-11-03T06:10:46.688Z,53.17
2017-11-03T06:11:20.578Z,58.20
2017-11-03T06:11:54.471Z,63.58
2017-11-03T06:12:28.357Z,60.72
2017-11-03T06:13:02.231Z,59.47
2017-11-03T06:13:36.121Z,57.75
2017-11-03T06:14:10.003Z,62.80
2017-11-03T06:14:43.883Z,66.40
2017-11-03T06:15:17.828Z,73.37
2017-11-03T06:15:51.703Z,69.12
2017-11-03T06:16:25.599Z,62.80
2017-11-03T06:16:59.479Z,61.67
2017-11-03T06:17:33.351Z,58.30
2017-11-03T06:18:07.248Z,63.28
2017-11-03T06:18:41.203Z,67.00
2017-11-03T06:19:15.096Z,60.78
2017-11-03T06:19:48.969Z,64.15
2017-11-03T06:20:22.849Z,60.38
2017-11-03T06:20:56.715Z,56.80
2017-11-03T06:21:30.592Z,54.35
2017-11-03T06:22:04.662Z,61.95
2017-11-03T06:22:38.540Z,64.00
2017-11-03T06:23:12.475Z,62.42
2017-11-03T06:23:47.158Z,75.65
2017-11-03T06:24:21.040Z,61.35
2017-11-03T06:24:54.917Z,69.18
2017-11-03T06:25:28.855Z,55.33
2017-11-03T06:26:02.736Z,60.92
2017-11-03T06:26:36.603Z,59.53
2017-11-03T06:27:10.505Z,56.05
2017-11-03T06:27:44.375Z,70.45
2017-11-03T06:28:18.250Z,52.58
2017-11-03T06:28:52.224Z,63.70
2017-11-03T06:29:26.096Z,67.57
2017-11-03T06:30:00.111Z,63.63
2017-11-03T06:30:33.982Z,68.10
2017-11-03T06:31:07.925Z,63.00
2017-11-03T06:31:41.799Z,65.55
2017-11-03T06:32:15.696Z,60.55
2017-11-03T06:32:49.571Z,62.15
2017-11-03T06:33:23.448Z,59.00
2017-11-03T06:33:57.318Z,63.78
2017-11-03T06:34:31.219Z,64.78
2017-11-03T06:35:05.096Z,63.97
2017-11-03T06:35:39.066Z,68.45
2017-11-03T06:36:12.950Z,64.53
2017-11-03T06:36:46.835Z,68.05
2017-11-03T06:37:20.747Z,64.45
2017-11-03T06:37:54.627Z,68.20
2017-11-03T06:38:28.514Z,70.45
2017-11-03T06:39:02.397Z,61.20
2017-11-03T06:39:36.280Z,64.70
2017-11-03T06:40:10.161Z,75.93
2017-11-03T06:40:44.036Z,63.78
2017-11-03T06:41:17.905Z,57.10
2017-11-03T06:41:51.788Z,59.47
2017-11-03T06:42:25.677Z,56.65
2017-11-03T06:42:59.570Z,69.20
2017-11-03T06:43:33.461Z,67.80
2017-11-03T06:44:07.320Z,66.78
2017-11-03T06:44:41.200Z,62.13
2017-11-03T06:45:15.586Z,68.65
2017-11-03T06:45:49.540Z,79.65
2017-11-03T06:46:26.166Z,69.37
2017-11-03T06:47:00.711Z,71.12
2017-11-03T06:47:34.654Z,60.30
2017-11-03T06:48:08.547Z,61.08
2017-11-03T06:48:42.450Z,56.60
2017-11-03T06:49:16.451Z,66.57
2017-11-03T06:49:50.358Z,60.70
2017-11-03T06:50:24.422Z,67.40
2017-11-03T06:50:58.526Z,72.00
2017-11-03T06:51:34.303Z,64.32
2017-11-03T06:52:08.776Z,66.10
2017-11-03T06:52:42.719Z,59.80
2017-11-03T06:53:18.022Z,59.35
2017-11-03T06:53:52.885Z,78.43
2017-11-03T06:54:27.588Z,62.10
2017-11-03T06:55:01.542Z,65.15
2017-11-03T06:55:35.547Z,71.30
2017-11-03T06:56:09.473Z,51.97
2017-11-03T06:56:43.384Z,71.35
2017-11-03T06:57:17.325Z,69.35
2017-11-03T06:57:51.586Z,59.58
2017-11-03T06:58:31.919Z,68.22
2017-11-03T06:59:05.824Z,62.53
2017-11-03T06:59:39.812Z,68.75
2017-11-03T07:00:15.284Z,73.03
2017-11-03T07:00:50.556Z,68.15
2017-11-03T07:01:24.455Z,67.22
2017-11-03T07:01:58.335Z,60.53
2017-11-03T07:02:32.245Z,69.75
2017-11-03T07:03:06.115Z,56.83
2017-11-03T07:03:39.986Z,59.85
2017-11-03T07:04:13.867Z,60.97
2017-11-03T07:04:48.175Z,64.03
2017-11-03T07:05:22.060Z,56.30
2017-11-03T07:05:55.939Z,59.97
2017-11-03T07:06:29.818Z,56.47
2017-11-03T07:07:03.699Z,56.22
2017-11-03T07:07:37.578Z,61.05
2017-11-03T07:08:11.477Z,53.17
2017-11-03T07:08:45.379Z,55.88
2017-11-03T07:09:19.250Z,59.90
2017-11-03T07:09:53.130Z,62.45
2017-11-03T07:10:27.069Z,57.88
2017-11-03T07:11:00.958Z,61.40
2017-11-03T07:11:34.839Z,52.80
2017-11-03T07:12:08.727Z,50.08
2017-11-03T07:12:42.597Z,56.78
2017-11-03T07:13:16.489Z,57.92
2017-11-03T07:13:50.361Z,58.22
2017-11-03T07:14:24.240Z,57.22
2017-11-03T07:14:58.102Z,52.38
2017-11-03T07:15:32.013Z,49.10
2017-11-03T07:16:05.909Z,60.60
2017-11-03T07:16:39.801Z,60.12
2017-11-03T07:17:13.682Z,64.28
2017-11-03T07:17:47.554Z,50.78
2017-11-03T07:18:21.468Z,50.15
2017-11-03T07:18:55.332Z,55.70